Cercedilla, Spain
Current Conditions -  °F | °C
As of 4:00 PM on Wednesday 22 Oct 2014 (Local Time) from LEVS Reporting Station
Clear Clear  
Wind Chill: 77°   Ceiling: Unl
Heat Index: 78°   Visibility: 6mi
Dew Point: 41°   Wind: 3mph
Humidity: 28%   Direction: 130°SE
Pressure: 30.33"   Gusts: NA
Location:  40.74°N, 4.06°W
Report Text: LEVS 221400Z 13003KT 070V230 CAVOK 25/05 Q1027
Loading
Personal Weather Stations






























Interactive Weather Map
Tropical Storm Tracking
New forecast layout! Learn more

10-Day Weather Forecast

Advertisements
Track Severe Weather on mobile